sensor_id;sensor_type;location;lat;lon;timestamp;P1;durP1;ratioP1;P2;durP2;ratioP2
61200;SDS011;47065;52.898;6.992;2023-12-22T00:00:18;10.52;;;2.95;;
61200;SDS011;47065;52.898;6.992;2023-12-22T00:02:44;21.35;;;4.75;;
61200;SDS011;47065;52.898;6.992;2023-12-22T00:05:09;19.95;;;3.33;;
61200;SDS011;47065;52.898;6.992;2023-12-22T00:07:35;18.55;;;3.45;;
61200;SDS011;47065;52.898;6.992;2023-12-22T00:10:01;20.95;;;4.80;;
61200;SDS011;47065;52.898;6.992;2023-12-22T00:12:26;25.65;;;4.78;;
61200;SDS011;47065;52.898;6.992;2023-12-22T00:14:52;18.10;;;4.35;;
61200;SDS011;47065;52.898;6.992;2023-12-22T00:17:18;29.70;;;5.15;;
61200;SDS011;47065;52.898;6.992;2023-12-22T00:19:44;20.48;;;5.88;;
61200;SDS011;47065;52.898;6.992;2023-12-22T00:22:09;21.08;;;4.18;;
61200;SDS011;47065;52.898;6.992;2023-12-22T00:24:35;26.52;;;4.55;;
61200;SDS011;47065;52.898;6.992;2023-12-22T00:27:00;18.70;;;4.75;;
61200;SDS011;47065;52.898;6.992;2023-12-22T00:29:26;21.00;;;3.75;;
61200;SDS011;47065;52.898;6.992;2023-12-22T00:31:53;23.67;;;4.30;;
61200;SDS011;47065;52.898;6.992;2023-12-22T00:34:21;22.60;;;4.40;;
61200;SDS011;47065;52.898;6.992;2023-12-22T00:36:47;14.20;;;4.10;;
61200;SDS011;47065;52.898;6.992;2023-12-22T00:39:13;15.55;;;3.90;;
61200;SDS011;47065;52.898;6.992;2023-12-22T00:41:38;21.17;;;5.35;;
61200;SDS011;47065;52.898;6.992;2023-12-22T00:44:04;27.88;;;4.32;;
61200;SDS011;47065;52.898;6.992;2023-12-22T00:46:29;22.80;;;4.90;;
61200;SDS011;47065;52.898;6.992;2023-12-22T00:48:55;19.90;;;3.40;;
61200;SDS011;47065;52.898;6.992;2023-12-22T00:51:21;18.08;;;4.53;;
61200;SDS011;47065;52.898;6.992;2023-12-22T00:53:46;12.07;;;3.13;;
61200;SDS011;47065;52.898;6.992;2023-12-22T00:56:12;12.20;;;2.92;;
61200;SDS011;47065;52.898;6.992;2023-12-22T00:58:39;20.38;;;4.47;;
61200;SDS011;47065;52.898;6.992;2023-12-22T01:01:05;20.33;;;5.03;;
61200;SDS011;47065;52.898;6.992;2023-12-22T01:03:31;20.60;;;3.85;;
61200;SDS011;47065;52.898;6.992;2023-12-22T01:05:56;15.07;;;4.28;;
61200;SDS011;47065;52.898;6.992;2023-12-22T01:08:22;24.35;;;4.88;;
61200;SDS011;47065;52.898;6.992;2023-12-22T01:10:47;16.05;;;3.20;;
61200;SDS011;47065;52.898;6.992;2023-12-22T01:13:13;16.50;;;3.85;;
61200;SDS011;47065;52.898;6.992;2023-12-22T01:15:40;23.40;;;4.90;;
61200;SDS011;47065;52.898;6.992;2023-12-22T01:18:05;15.50;;;3.33;;
61200;SDS011;47065;52.898;6.992;2023-12-22T01:20:31;18.88;;;3.08;;
61200;SDS011;47065;52.898;6.992;2023-12-22T01:22:56;14.95;;;3.97;;
61200;SDS011;47065;52.898;6.992;2023-12-22T01:25:22;18.85;;;4.28;;
61200;SDS011;47065;52.898;6.992;2023-12-22T01:27:48;14.93;;;2.75;;
61200;SDS011;47065;52.898;6.992;2023-12-22T01:30:17;9.90;;;2.83;;
61200;SDS011;47065;52.898;6.992;2023-12-22T01:32:43;26.15;;;5.00;;
61200;SDS011;47065;52.898;6.992;2023-12-22T01:35:09;21.40;;;4.45;;
61200;SDS011;47065;52.898;6.992;2023-12-22T01:37:38;29.42;;;6.60;;
61200;SDS011;47065;52.898;6.992;2023-12-22T01:40:04;20.48;;;4.30;;
61200;SDS011;47065;52.898;6.992;2023-12-22T01:42:30;23.67;;;5.22;;
61200;SDS011;47065;52.898;6.992;2023-12-22T01:44:56;30.33;;;5.35;;
61200;SDS011;47065;52.898;6.992;2023-12-22T01:47:21;26.10;;;5.57;;
61200;SDS011;47065;52.898;6.992;2023-12-22T01:49:47;24.38;;;5.25;;
61200;SDS011;47065;52.898;6.992;2023-12-22T01:52:13;18.70;;;3.45;;
61200;SDS011;47065;52.898;6.992;2023-12-22T01:54:40;16.73;;;2.95;;
61200;SDS011;47065;52.898;6.992;2023-12-22T01:57:06;16.83;;;3.95;;
61200;SDS011;47065;52.898;6.992;2023-12-22T01:59:32;24.52;;;3.65;;
61200;SDS011;47065;52.898;6.992;2023-12-22T02:02:02;20.83;;;4.00;;
61200;SDS011;47065;52.898;6.992;2023-12-22T02:04:29;26.42;;;4.00;;
61200;SDS011;47065;52.898;6.992;2023-12-22T02:06:57;20.55;;;5.40;;
61200;SDS011;47065;52.898;6.992;2023-12-22T02:09:26;20.58;;;4.28;;
61200;SDS011;47065;52.898;6.992;2023-12-22T02:11:51;22.15;;;4.15;;
61200;SDS011;47065;52.898;6.992;2023-12-22T02:14:17;16.35;;;3.35;;
61200;SDS011;47065;52.898;6.992;2023-12-22T02:16:47;25.77;;;5.88;;
61200;SDS011;47065;52.898;6.992;2023-12-22T02:19:39;18.38;;;3.92;;
61200;SDS011;47065;52.898;6.992;2023-12-22T02:22:09;20.38;;;3.35;;
61200;SDS011;47065;52.898;6.992;2023-12-22T02:24:36;22.50;;;4.15;;
61200;SDS011;47065;52.898;6.992;2023-12-22T02:27:24;20.15;;;5.78;;
61200;SDS011;47065;52.898;6.992;2023-12-22T02:30:06;22.65;;;4.38;;
61200;SDS011;47065;52.898;6.992;2023-12-22T02:32:35;31.08;;;7.75;;
61200;SDS011;47065;52.898;6.992;2023-12-22T02:35:04;19.60;;;4.65;;
61200;SDS011;47065;52.898;6.992;2023-12-22T02:37:43;22.90;;;4.32;;
61200;SDS011;47065;52.898;6.992;2023-12-22T02:40:12;21.83;;;4.07;;
61200;SDS011;47065;52.898;6.992;2023-12-22T02:42:38;24.45;;;4.82;;
61200;SDS011;47065;52.898;6.992;2023-12-22T02:45:04;22.40;;;3.97;;
61200;SDS011;47065;52.898;6.992;2023-12-22T02:47:30;17.92;;;5.15;;
61200;SDS011;47065;52.898;6.992;2023-12-22T02:49:58;20.30;;;5.65;;
61200;SDS011;47065;52.898;6.992;2023-12-22T02:52:23;24.25;;;4.40;;
61200;SDS011;47065;52.898;6.992;2023-12-22T02:54:49;23.17;;;5.45;;
61200;SDS011;47065;52.898;6.992;2023-12-22T02:57:15;22.15;;;4.68;;
61200;SDS011;47065;52.898;6.992;2023-12-22T02:59:40;24.95;;;5.15;;
61200;SDS011;47065;52.898;6.992;2023-12-22T03:02:06;24.88;;;4.53;;
61200;SDS011;47065;52.898;6.992;2023-12-22T03:04:32;23.30;;;4.25;;
61200;SDS011;47065;52.898;6.992;2023-12-22T03:06:57;22.00;;;3.65;;
61200;SDS011;47065;52.898;6.992;2023-12-22T03:09:23;20.10;;;4.53;;
61200;SDS011;47065;52.898;6.992;2023-12-22T03:11:49;20.80;;;5.25;;
61200;SDS011;47065;52.898;6.992;2023-12-22T03:14:14;17.67;;;4.82;;
61200;SDS011;47065;52.898;6.992;2023-12-22T03:16:40;28.33;;;4.50;;
61200;SDS011;47065;52.898;6.992;2023-12-22T03:19:09;17.33;;;4.70;;
61200;SDS011;47065;52.898;6.992;2023-12-22T03:21:34;13.57;;;3.03;;
61200;SDS011;47065;52.898;6.992;2023-12-22T03:24:00;23.70;;;3.85;;
61200;SDS011;47065;52.898;6.992;2023-12-22T03:26:26;16.00;;;3.60;;
61200;SDS011;47065;52.898;6.992;2023-12-22T03:28:53;15.38;;;3.25;;
61200;SDS011;47065;52.898;6.992;2023-12-22T03:31:18;16.70;;;3.75;;
61200;SDS011;47065;52.898;6.992;2023-12-22T03:33:44;20.13;;;4.75;;
61200;SDS011;47065;52.898;6.992;2023-12-22T03:36:09;17.70;;;4.72;;
61200;SDS011;47065;52.898;6.992;2023-12-22T03:38:35;14.50;;;3.65;;
61200;SDS011;47065;52.898;6.992;2023-12-22T03:41:00;16.80;;;3.35;;
61200;SDS011;47065;52.898;6.992;2023-12-22T03:43:26;11.85;;;2.72;;
61200;SDS011;47065;52.898;6.992;2023-12-22T03:45:52;17.42;;;3.88;;
61200;SDS011;47065;52.898;6.992;2023-12-22T03:48:17;24.33;;;6.88;;
61200;SDS011;47065;52.898;6.992;2023-12-22T03:50:43;16.17;;;2.85;;
61200;SDS011;47065;52.898;6.992;2023-12-22T03:53:08;13.77;;;2.85;;
61200;SDS011;47065;52.898;6.992;2023-12-22T03:55:34;15.18;;;2.90;;
61200;SDS011;47065;52.898;6.992;2023-12-22T03:57:59;16.15;;;3.33;;
61200;SDS011;47065;52.898;6.992;2023-12-22T04:00:26;14.85;;;3.65;;
61200;SDS011;47065;52.898;6.992;2023-12-22T04:02:51;13.35;;;3.38;;
61200;SDS011;47065;52.898;6.992;2023-12-22T04:05:17;27.88;;;4.72;;
61200;SDS011;47065;52.898;6.992;2023-12-22T04:07:42;23.98;;;4.07;;
61200;SDS011;47065;52.898;6.992;2023-12-22T04:10:08;18.52;;;3.55;;
61200;SDS011;47065;52.898;6.992;2023-12-22T04:12:34;20.05;;;3.90;;
61200;SDS011;47065;52.898;6.992;2023-12-22T04:14:59;20.17;;;3.90;;
61200;SDS011;47065;52.898;6.992;2023-12-22T04:17:25;17.45;;;3.45;;
61200;SDS011;47065;52.898;6.992;2023-12-22T04:19:51;13.00;;;3.28;;
61200;SDS011;47065;52.898;6.992;2023-12-22T04:22:17;16.08;;;2.78;;
61200;SDS011;47065;52.898;6.992;2023-12-22T04:24:43;15.90;;;2.80;;
61200;SDS011;47065;52.898;6.992;2023-12-22T04:27:08;20.00;;;4.28;;
61200;SDS011;47065;52.898;6.992;2023-12-22T04:29:34;10.63;;;2.60;;
61200;SDS011;47065;52.898;6.992;2023-12-22T04:32:00;18.73;;;3.83;;
61200;SDS011;47065;52.898;6.992;2023-12-22T04:34:25;18.40;;;3.92;;
61200;SDS011;47065;52.898;6.992;2023-12-22T04:36:51;25.70;;;4.45;;
61200;SDS011;47065;52.898;6.992;2023-12-22T04:39:16;21.67;;;5.32;;
61200;SDS011;47065;52.898;6.992;2023-12-22T04:41:42;31.73;;;4.50;;
61200;SDS011;47065;52.898;6.992;2023-12-22T04:44:08;19.40;;;4.53;;
61200;SDS011;47065;52.898;6.992;2023-12-22T04:46:33;19.67;;;4.90;;
61200;SDS011;47065;52.898;6.992;2023-12-22T04:48:59;25.85;;;5.22;;
61200;SDS011;47065;52.898;6.992;2023-12-22T04:51:25;20.05;;;3.90;;
61200;SDS011;47065;52.898;6.992;2023-12-22T04:53:50;18.40;;;3.58;;
61200;SDS011;47065;52.898;6.992;2023-12-22T04:56:19;23.35;;;5.32;;
61200;SDS011;47065;52.898;6.992;2023-12-22T04:58:45;20.80;;;3.72;;
61200;SDS011;47065;52.898;6.992;2023-12-22T05:01:11;22.83;;;5.65;;
61200;SDS011;47065;52.898;6.992;2023-12-22T05:03:36;25.10;;;5.47;;
61200;SDS011;47065;52.898;6.992;2023-12-22T05:06:02;23.65;;;5.22;;
61200;SDS011;47065;52.898;6.992;2023-12-22T05:08:28;26.35;;;4.38;;
61200;SDS011;47065;52.898;6.992;2023-12-22T05:10:53;21.23;;;4.18;;
61200;SDS011;47065;52.898;6.992;2023-12-22T05:13:19;24.30;;;4.57;;
61200;SDS011;47065;52.898;6.992;2023-12-22T05:15:45;30.17;;;5.18;;
61200;SDS011;47065;52.898;6.992;2023-12-22T05:18:10;28.90;;;4.15;;
61200;SDS011;47065;52.898;6.992;2023-12-22T05:20:36;15.80;;;5.18;;
61200;SDS011;47065;52.898;6.992;2023-12-22T05:23:02;22.48;;;4.75;;
61200;SDS011;47065;52.898;6.992;2023-12-22T05:25:27;19.90;;;4.65;;
61200;SDS011;47065;52.898;6.992;2023-12-22T05:27:54;21.52;;;5.47;;
61200;SDS011;47065;52.898;6.992;2023-12-22T05:30:19;23.95;;;4.68;;
61200;SDS011;47065;52.898;6.992;2023-12-22T05:32:45;26.48;;;5.00;;
61200;SDS011;47065;52.898;6.992;2023-12-22T05:35:11;19.25;;;4.82;;
61200;SDS011;47065;52.898;6.992;2023-12-22T05:37:36;27.52;;;5.00;;
61200;SDS011;47065;52.898;6.992;2023-12-22T05:40:02;28.17;;;5.53;;
61200;SDS011;47065;52.898;6.992;2023-12-22T05:42:28;32.88;;;4.60;;
61200;SDS011;47065;52.898;6.992;2023-12-22T05:44:53;22.67;;;3.80;;
61200;SDS011;47065;52.898;6.992;2023-12-22T05:47:19;23.38;;;4.93;;
61200;SDS011;47065;52.898;6.992;2023-12-22T05:49:45;25.95;;;5.88;;
61200;SDS011;47065;52.898;6.992;2023-12-22T05:52:11;19.88;;;5.10;;
61200;SDS011;47065;52.898;6.992;2023-12-22T05:54:38;20.08;;;4.03;;
61200;SDS011;47065;52.898;6.992;2023-12-22T05:57:04;27.90;;;5.10;;
61200;SDS011;47065;52.898;6.992;2023-12-22T05:59:31;21.27;;;4.75;;
61200;SDS011;47065;52.898;6.992;2023-12-22T06:01:58;20.08;;;3.55;;
61200;SDS011;47065;52.898;6.992;2023-12-22T06:04:24;20.70;;;4.35;;
61200;SDS011;47065;52.898;6.992;2023-12-22T06:06:50;19.85;;;4.97;;
61200;SDS011;47065;52.898;6.992;2023-12-22T06:09:16;23.10;;;5.05;;
61200;SDS011;47065;52.898;6.992;2023-12-22T06:11:43;14.73;;;4.90;;
61200;SDS011;47065;52.898;6.992;2023-12-22T06:14:10;27.88;;;4.93;;
61200;SDS011;47065;52.898;6.992;2023-12-22T06:16:36;14.70;;;4.10;;
61200;SDS011;47065;52.898;6.992;2023-12-22T06:19:01;24.33;;;4.55;;
61200;SDS011;47065;52.898;6.992;2023-12-22T06:21:27;21.05;;;3.70;;
61200;SDS011;47065;52.898;6.992;2023-12-22T06:23:52;14.65;;;3.53;;
61200;SDS011;47065;52.898;6.992;2023-12-22T06:26:18;21.60;;;4.70;;
61200;SDS011;47065;52.898;6.992;2023-12-22T06:28:44;17.10;;;3.42;;
61200;SDS011;47065;52.898;6.992;2023-12-22T06:31:16;21.95;;;4.82;;
61200;SDS011;47065;52.898;6.992;2023-12-22T06:33:46;19.08;;;3.75;;
61200;SDS011;47065;52.898;6.992;2023-12-22T06:36:22;29.60;;;4.50;;
61200;SDS011;47065;52.898;6.992;2023-12-22T06:38:49;24.05;;;4.78;;
61200;SDS011;47065;52.898;6.992;2023-12-22T06:41:20;23.23;;;4.03;;
61200;SDS011;47065;52.898;6.992;2023-12-22T06:43:45;13.88;;;3.90;;
61200;SDS011;47065;52.898;6.992;2023-12-22T06:46:18;22.42;;;5.10;;
61200;SDS011;47065;52.898;6.992;2023-12-22T06:48:44;22.95;;;4.75;;
61200;SDS011;47065;52.898;6.992;2023-12-22T06:51:26;21.52;;;4.05;;
61200;SDS011;47065;52.898;6.992;2023-12-22T06:53:53;11.32;;;3.33;;
61200;SDS011;47065;52.898;6.992;2023-12-22T06:56:23;16.63;;;3.47;;
61200;SDS011;47065;52.898;6.992;2023-12-22T06:58:53;38.35;;;5.25;;
61200;SDS011;47065;52.898;6.992;2023-12-22T07:01:28;20.98;;;5.00;;
61200;SDS011;47065;52.898;6.992;2023-12-22T07:03:55;12.10;;;4.22;;
61200;SDS011;47065;52.898;6.992;2023-12-22T07:06:21;18.40;;;3.92;;
61200;SDS011;47065;52.898;6.992;2023-12-22T07:14:05;16.80;;;3.00;;
61200;SDS011;47065;52.898;6.992;2023-12-22T07:16:30;20.35;;;3.17;;
61200;SDS011;47065;52.898;6.992;2023-12-22T07:18:57;18.80;;;3.80;;
61200;SDS011;47065;52.898;6.992;2023-12-22T07:21:23;13.32;;;3.30;;
61200;SDS011;47065;52.898;6.992;2023-12-22T07:23:49;21.55;;;4.03;;
61200;SDS011;47065;52.898;6.992;2023-12-22T07:26:14;21.92;;;3.70;;
61200;SDS011;47065;52.898;6.992;2023-12-22T07:28:40;20.15;;;5.15;;
61200;SDS011;47065;52.898;6.992;2023-12-22T07:31:05;13.52;;;2.95;;
61200;SDS011;47065;52.898;6.992;2023-12-22T07:33:31;15.90;;;4.35;;
61200;SDS011;47065;52.898;6.992;2023-12-22T07:35:57;15.18;;;3.75;;
61200;SDS011;47065;52.898;6.992;2023-12-22T07:38:23;18.10;;;2.97;;
61200;SDS011;47065;52.898;6.992;2023-12-22T07:40:48;15.13;;;4.10;;
61200;SDS011;47065;52.898;6.992;2023-12-22T07:43:14;24.70;;;4.40;;
61200;SDS011;47065;52.898;6.992;2023-12-22T07:45:40;19.83;;;4.60;;
61200;SDS011;47065;52.898;6.992;2023-12-22T07:48:06;24.75;;;5.25;;
61200;SDS011;47065;52.898;6.992;2023-12-22T07:50:32;19.58;;;4.00;;
61200;SDS011;47065;52.898;6.992;2023-12-22T07:52:58;18.52;;;3.65;;
61200;SDS011;47065;52.898;6.992;2023-12-22T07:55:24;20.13;;;5.07;;
61200;SDS011;47065;52.898;6.992;2023-12-22T07:57:50;23.33;;;4.43;;
61200;SDS011;47065;52.898;6.992;2023-12-22T08:00:16;19.25;;;3.90;;
61200;SDS011;47065;52.898;6.992;2023-12-22T08:02:42;13.63;;;3.47;;
61200;SDS011;47065;52.898;6.992;2023-12-22T08:05:08;21.20;;;3.17;;
61200;SDS011;47065;52.898;6.992;2023-12-22T08:07:34;18.23;;;3.72;;
61200;SDS011;47065;52.898;6.992;2023-12-22T08:10:00;21.10;;;3.72;;
61200;SDS011;47065;52.898;6.992;2023-12-22T08:12:27;20.52;;;3.15;;
61200;SDS011;47065;52.898;6.992;2023-12-22T08:14:53;17.77;;;3.33;;
61200;SDS011;47065;52.898;6.992;2023-12-22T08:17:19;14.93;;;3.55;;
61200;SDS011;47065;52.898;6.992;2023-12-22T08:19:45;20.63;;;3.42;;
61200;SDS011;47065;52.898;6.992;2023-12-22T08:22:10;15.13;;;3.08;;
61200;SDS011;47065;52.898;6.992;2023-12-22T08:24:39;14.70;;;2.88;;
61200;SDS011;47065;52.898;6.992;2023-12-22T08:27:05;20.30;;;4.22;;
61200;SDS011;47065;52.898;6.992;2023-12-22T08:29:33;20.23;;;4.93;;
61200;SDS011;47065;52.898;6.992;2023-12-22T08:31:59;13.18;;;4.03;;
61200;SDS011;47065;52.898;6.992;2023-12-22T08:34:29;19.60;;;4.28;;
61200;SDS011;47065;52.898;6.992;2023-12-22T08:36:54;15.82;;;3.30;;
61200;SDS011;47065;52.898;6.992;2023-12-22T08:39:20;16.38;;;3.53;;
61200;SDS011;47065;52.898;6.992;2023-12-22T08:41:46;22.00;;;3.92;;
61200;SDS011;47065;52.898;6.992;2023-12-22T08:44:12;15.52;;;3.95;;
61200;SDS011;47065;52.898;6.992;2023-12-22T08:46:39;17.02;;;3.88;;
61200;SDS011;47065;52.898;6.992;2023-12-22T08:49:05;26.67;;;5.32;;
61200;SDS011;47065;52.898;6.992;2023-12-22T08:51:31;23.02;;;3.15;;
61200;SDS011;47065;52.898;6.992;2023-12-22T08:53:57;13.25;;;3.03;;
61200;SDS011;47065;52.898;6.992;2023-12-22T08:56:23;14.02;;;3.63;;
61200;SDS011;47065;52.898;6.992;2023-12-22T08:58:51;14.55;;;3.40;;
61200;SDS011;47065;52.898;6.992;2023-12-22T09:01:17;19.45;;;4.22;;
61200;SDS011;47065;52.898;6.992;2023-12-22T09:03:44;19.95;;;3.40;;
61200;SDS011;47065;52.898;6.992;2023-12-22T09:06:18;13.43;;;4.10;;
61200;SDS011;47065;52.898;6.992;2023-12-22T09:08:44;27.25;;;5.32;;
61200;SDS011;47065;52.898;6.992;2023-12-22T09:11:11;15.65;;;2.42;;
61200;SDS011;47065;52.898;6.992;2023-12-22T09:13:38;15.45;;;4.00;;
61200;SDS011;47065;52.898;6.992;2023-12-22T09:16:04;10.07;;;2.13;;
61200;SDS011;47065;52.898;6.992;2023-12-22T09:18:30;8.77;;;2.85;;
61200;SDS011;47065;52.898;6.992;2023-12-22T09:20:56;11.38;;;2.90;;
61200;SDS011;47065;52.898;6.992;2023-12-22T09:23:23;10.65;;;1.95;;
61200;SDS011;47065;52.898;6.992;2023-12-22T09:25:49;10.93;;;2.35;;
61200;SDS011;47065;52.898;6.992;2023-12-22T09:28:15;8.50;;;1.75;;
61200;SDS011;47065;52.898;6.992;2023-12-22T09:30:41;8.07;;;2.08;;
61200;SDS011;47065;52.898;6.992;2023-12-22T09:33:09;4.30;;;1.30;;
61200;SDS011;47065;52.898;6.992;2023-12-22T09:35:35;8.73;;;1.38;;
61200;SDS011;47065;52.898;6.992;2023-12-22T09:38:01;5.85;;;1.17;;
61200;SDS011;47065;52.898;6.992;2023-12-22T09:40:27;7.47;;;1.88;;
61200;SDS011;47065;52.898;6.992;2023-12-22T09:42:56;7.40;;;0.93;;
61200;SDS011;47065;52.898;6.992;2023-12-22T09:45:23;5.60;;;1.50;;
61200;SDS011;47065;52.898;6.992;2023-12-22T09:47:49;3.78;;;1.23;;
61200;SDS011;47065;52.898;6.992;2023-12-22T09:50:16;8.52;;;1.27;;
61200;SDS011;47065;52.898;6.992;2023-12-22T09:52:42;5.07;;;0.70;;
61200;SDS011;47065;52.898;6.992;2023-12-22T09:55:12;5.93;;;0.90;;
61200;SDS011;47065;52.898;6.992;2023-12-22T09:57:38;8.15;;;1.13;;
61200;SDS011;47065;52.898;6.992;2023-12-22T10:00:08;7.05;;;1.10;;
61200;SDS011;47065;52.898;6.992;2023-12-22T10:02:35;6.43;;;0.93;;
61200;SDS011;47065;52.898;6.992;2023-12-22T10:05:01;9.30;;;1.00;;
61200;SDS011;47065;52.898;6.992;2023-12-22T10:07:27;5.93;;;1.08;;
61200;SDS011;47065;52.898;6.992;2023-12-22T10:09:54;3.90;;;1.15;;
61200;SDS011;47065;52.898;6.992;2023-12-22T10:12:21;6.28;;;1.30;;
61200;SDS011;47065;52.898;6.992;2023-12-22T10:14:48;6.05;;;1.25;;
61200;SDS011;47065;52.898;6.992;2023-12-22T10:17:14;5.38;;;1.55;;
61200;SDS011;47065;52.898;6.992;2023-12-22T10:19:42;6.28;;;1.15;;
61200;SDS011;47065;52.898;6.992;2023-12-22T10:22:07;6.65;;;1.88;;
61200;SDS011;47065;52.898;6.992;2023-12-22T10:27:03;5.82;;;1.52;;
61200;SDS011;47065;52.898;6.992;2023-12-22T10:29:29;5.05;;;1.50;;
61200;SDS011;47065;52.898;6.992;2023-12-22T10:31:55;10.32;;;3.25;;
61200;SDS011;47065;52.898;6.992;2023-12-22T10:34:20;19.15;;;3.67;;
61200;SDS011;47065;52.898;6.992;2023-12-22T10:36:46;10.43;;;2.00;;
61200;SDS011;47065;52.898;6.992;2023-12-22T10:39:12;12.20;;;2.72;;
61200;SDS011;47065;52.898;6.992;2023-12-22T10:41:38;15.57;;;3.90;;
61200;SDS011;47065;52.898;6.992;2023-12-22T10:44:03;12.27;;;1.90;;
61200;SDS011;47065;52.898;6.992;2023-12-22T10:46:33;9.20;;;2.60;;
61200;SDS011;47065;52.898;6.992;2023-12-22T10:49:00;8.48;;;1.92;;
61200;SDS011;47065;52.898;6.992;2023-12-22T10:51:28;12.77;;;2.47;;
61200;SDS011;47065;52.898;6.992;2023-12-22T10:53:57;7.40;;;2.10;;
61200;SDS011;47065;52.898;6.992;2023-12-22T10:56:23;10.30;;;3.10;;
61200;SDS011;47065;52.898;6.992;2023-12-22T10:58:50;13.90;;;2.35;;
61200;SDS011;47065;52.898;6.992;2023-12-22T11:01:17;9.77;;;3.10;;
61200;SDS011;47065;52.898;6.992;2023-12-22T11:03:45;12.50;;;2.53;;
61200;SDS011;47065;52.898;6.992;2023-12-22T11:06:15;29.15;;;3.85;;
61200;SDS011;47065;52.898;6.992;2023-12-22T11:08:41;8.20;;;1.58;;
61200;SDS011;47065;52.898;6.992;2023-12-22T11:11:13;11.00;;;2.42;;
61200;SDS011;47065;52.898;6.992;2023-12-22T11:13:45;8.65;;;2.40;;
61200;SDS011;47065;52.898;6.992;2023-12-22T11:16:12;21.50;;;3.40;;
61200;SDS011;47065;52.898;6.992;2023-12-22T11:18:39;11.02;;;1.90;;
61200;SDS011;47065;52.898;6.992;2023-12-22T11:21:06;16.20;;;2.75;;
61200;SDS011;47065;52.898;6.992;2023-12-22T11:23:35;9.52;;;1.73;;
61200;SDS011;47065;52.898;6.992;2023-12-22T11:26:02;16.90;;;2.30;;
61200;SDS011;47065;52.898;6.992;2023-12-22T11:28:29;15.63;;;2.55;;
61200;SDS011;47065;52.898;6.992;2023-12-22T11:30:58;8.18;;;1.75;;
61200;SDS011;47065;52.898;6.992;2023-12-22T11:33:24;5.85;;;2.15;;
61200;SDS011;47065;52.898;6.992;2023-12-22T11:35:52;13.77;;;2.58;;
61200;SDS011;47065;52.898;6.992;2023-12-22T11:38:21;13.82;;;2.17;;
61200;SDS011;47065;52.898;6.992;2023-12-22T11:40:48;10.52;;;2.40;;
61200;SDS011;47065;52.898;6.992;2023-12-22T11:43:17;4.40;;;2.10;;
61200;SDS011;47065;52.898;6.992;2023-12-22T11:45:44;11.18;;;2.05;;
61200;SDS011;47065;52.898;6.992;2023-12-22T11:48:10;10.48;;;3.08;;
61200;SDS011;47065;52.898;6.992;2023-12-22T11:50:35;10.32;;;2.05;;
61200;SDS011;47065;52.898;6.992;2023-12-22T11:56:00;18.50;;;2.30;;
61200;SDS011;47065;52.898;6.992;2023-12-22T11:58:48;10.07;;;2.83;;
61200;SDS011;47065;52.898;6.992;2023-12-22T12:01:18;13.82;;;2.83;;
61200;SDS011;47065;52.898;6.992;2023-12-22T12:03:48;17.08;;;3.35;;
61200;SDS011;47065;52.898;6.992;2023-12-22T12:06:17;7.18;;;1.95;;
61200;SDS011;47065;52.898;6.992;2023-12-22T12:08:59;10.95;;;2.22;;
61200;SDS011;47065;52.898;6.992;2023-12-22T12:14:15;8.60;;;1.67;;
61200;SDS011;47065;52.898;6.992;2023-12-22T12:16:46;8.90;;;1.83;;
61200;SDS011;47065;52.898;6.992;2023-12-22T12:19:12;11.23;;;2.20;;
61200;SDS011;47065;52.898;6.992;2023-12-22T12:21:39;16.23;;;2.33;;
61200;SDS011;47065;52.898;6.992;2023-12-22T12:24:05;10.65;;;2.05;;
61200;SDS011;47065;52.898;6.992;2023-12-22T12:26:32;7.57;;;1.88;;
61200;SDS011;47065;52.898;6.992;2023-12-22T12:28:58;10.18;;;1.90;;
61200;SDS011;47065;52.898;6.992;2023-12-22T12:31:36;10.23;;;2.10;;
61200;SDS011;47065;52.898;6.992;2023-12-22T12:34:04;7.35;;;2.60;;
61200;SDS011;47065;52.898;6.992;2023-12-22T12:36:30;12.80;;;2.13;;
61200;SDS011;47065;52.898;6.992;2023-12-22T12:39:06;9.73;;;2.33;;
61200;SDS011;47065;52.898;6.992;2023-12-22T12:41:33;11.65;;;2.40;;
61200;SDS011;47065;52.898;6.992;2023-12-22T12:44:05;20.92;;;3.33;;
61200;SDS011;47065;52.898;6.992;2023-12-22T12:46:34;12.93;;;2.70;;
61200;SDS011;47065;52.898;6.992;2023-12-22T12:49:04;11.32;;;2.60;;
61200;SDS011;47065;52.898;6.992;2023-12-22T12:51:41;13.40;;;2.33;;
61200;SDS011;47065;52.898;6.992;2023-12-22T12:54:08;9.82;;;2.05;;
61200;SDS011;47065;52.898;6.992;2023-12-22T12:59:08;7.22;;;2.35;;
61200;SDS011;47065;52.898;6.992;2023-12-22T13:01:38;7.45;;;1.92;;
61200;SDS011;47065;52.898;6.992;2023-12-22T13:04:08;12.15;;;3.10;;
61200;SDS011;47065;52.898;6.992;2023-12-22T13:06:35;15.60;;;3.00;;
61200;SDS011;47065;52.898;6.992;2023-12-22T13:09:08;6.13;;;1.48;;
61200;SDS011;47065;52.898;6.992;2023-12-22T13:11:33;7.55;;;2.35;;
61200;SDS011;47065;52.898;6.992;2023-12-22T13:14:01;15.30;;;2.53;;
61200;SDS011;47065;52.898;6.992;2023-12-22T13:16:27;12.10;;;2.22;;
61200;SDS011;47065;52.898;6.992;2023-12-22T13:18:58;16.63;;;3.17;;
61200;SDS011;47065;52.898;6.992;2023-12-22T13:21:26;7.68;;;1.52;;
61200;SDS011;47065;52.898;6.992;2023-12-22T13:26:41;9.27;;;1.85;;
61200;SDS011;47065;52.898;6.992;2023-12-22T13:29:07;7.97;;;1.80;;
61200;SDS011;47065;52.898;6.992;2023-12-22T13:31:41;5.80;;;2.08;;
61200;SDS011;47065;52.898;6.992;2023-12-22T13:34:13;9.23;;;2.25;;
61200;SDS011;47065;52.898;6.992;2023-12-22T13:36:40;18.92;;;2.40;;
61200;SDS011;47065;52.898;6.992;2023-12-22T13:39:07;13.63;;;1.88;;
61200;SDS011;47065;52.898;6.992;2023-12-22T13:41:34;10.48;;;2.40;;
61200;SDS011;47065;52.898;6.992;2023-12-22T13:44:04;11.55;;;1.92;;
61200;SDS011;47065;52.898;6.992;2023-12-22T13:46:30;8.75;;;2.13;;
61200;SDS011;47065;52.898;6.992;2023-12-22T13:48:56;9.40;;;2.25;;
61200;SDS011;47065;52.898;6.992;2023-12-22T13:51:23;8.27;;;1.73;;
61200;SDS011;47065;52.898;6.992;2023-12-22T13:53:49;6.63;;;2.03;;
61200;SDS011;47065;52.898;6.992;2023-12-22T13:56:15;11.10;;;2.08;;
61200;SDS011;47065;52.898;6.992;2023-12-22T13:58:47;10.57;;;2.30;;
61200;SDS011;47065;52.898;6.992;2023-12-22T14:01:13;13.70;;;3.35;;
61200;SDS011;47065;52.898;6.992;2023-12-22T14:03:43;11.77;;;1.95;;
61200;SDS011;47065;52.898;6.992;2023-12-22T14:06:09;10.55;;;2.42;;
61200;SDS011;47065;52.898;6.992;2023-12-22T14:08:38;17.42;;;2.33;;
61200;SDS011;47065;52.898;6.992;2023-12-22T14:11:05;13.40;;;2.78;;
61200;SDS011;47065;52.898;6.992;2023-12-22T14:13:31;14.13;;;2.88;;
61200;SDS011;47065;52.898;6.992;2023-12-22T14:15:57;9.30;;;2.15;;
61200;SDS011;47065;52.898;6.992;2023-12-22T14:18:22;19.30;;;2.58;;
61200;SDS011;47065;52.898;6.992;2023-12-22T14:20:48;10.95;;;3.22;;
61200;SDS011;47065;52.898;6.992;2023-12-22T14:23:13;14.68;;;2.20;;
61200;SDS011;47065;52.898;6.992;2023-12-22T14:25:44;14.45;;;2.30;;
61200;SDS011;47065;52.898;6.992;2023-12-22T14:28:10;12.48;;;1.75;;
61200;SDS011;47065;52.898;6.992;2023-12-22T14:30:36;7.93;;;2.45;;
61200;SDS011;47065;52.898;6.992;2023-12-22T14:33:02;12.73;;;1.67;;
61200;SDS011;47065;52.898;6.992;2023-12-22T14:35:27;7.45;;;1.67;;
61200;SDS011;47065;52.898;6.992;2023-12-22T14:37:53;10.23;;;2.10;;
61200;SDS011;47065;52.898;6.992;2023-12-22T14:40:18;6.05;;;2.28;;
61200;SDS011;47065;52.898;6.992;2023-12-22T14:42:44;11.32;;;1.92;;
61200;SDS011;47065;52.898;6.992;2023-12-22T14:45:10;7.75;;;2.20;;
61200;SDS011;47065;52.898;6.992;2023-12-22T14:47:35;6.85;;;1.52;;
61200;SDS011;47065;52.898;6.992;2023-12-22T14:50:02;16.85;;;1.92;;
61200;SDS011;47065;52.898;6.992;2023-12-22T14:52:30;8.95;;;1.30;;